Time;durP1;ratioP1;P1;durP2;ratioP2;P2;SDS_P1;SDS_P2;PMS_P1;PMS_P2;Temp;Humidity;BMP_temperature;BMP_pressure;BME280_temperature;BME280_humidity;BME280_pressure;Samples;Min_cycle;Max_cycle;Signal;HPM_P1;HPM_P2
2023/12/30 00:02:04;;;;;;;8.87;1.77;;;7.30;99.90;;;;;;5018788;28;20041;-78
2023/12/30 00:04:30;;;;;;;8.53;1.70;;;7.30;99.90;;;;;;4998341;28;20042;-78
2023/12/30 00:06:56;;;;;;;6.10;1.97;;;7.30;99.90;;;;;;5021508;28;20049;-77
2023/12/30 00:09:22;;;;;;;9.30;2.17;;;7.30;99.90;;;;;;5035402;28;20037;-77
2023/12/30 00:11:48;;;;;;;8.37;2.00;;;7.30;99.90;;;;;;5009005;28;20050;-77
2023/12/30 00:14:14;;;;;;;6.57;2.20;;;7.20;99.90;;;;;;5032280;28;20037;-77
2023/12/30 00:16:41;;;;;;;9.03;2.70;;;7.20;99.90;;;;;;5016307;28;20056;-77
2023/12/30 00:19:07;;;;;;;7.13;1.90;;;7.10;99.90;;;;;;5035506;28;20455;-77
2023/12/30 00:21:33;;;;;;;5.60;2.00;;;7.10;99.90;;;;;;5039622;28;20049;-77
2023/12/30 00:23:59;;;;;;;7.23;2.00;;;7.10;99.90;;;;;;5035108;28;20091;-77
2023/12/30 00:26:26;;;;;;;7.40;2.13;;;7.10;99.90;;;;;;5031879;28;20077;-79
2023/12/30 00:28:52;;;;;;;9.73;2.27;;;7.00;99.90;;;;;;5033734;28;20045;-76
2023/12/30 00:31:29;;;;;;;12.60;2.47;;;7.00;99.90;;;;;;5033975;28;20042;-77
2023/12/30 00:34:00;;;;;;;7.33;1.90;;;6.90;99.90;;;;;;5019518;28;20249;-77
2023/12/30 00:36:26;;;;;;;10.20;2.30;;;6.90;99.90;;;;;;5014943;28;20053;-77
2023/12/30 00:38:55;;;;;;;6.93;2.10;;;6.90;99.90;;;;;;5035894;28;20629;-77
2023/12/30 00:41:22;;;;;;;8.03;1.87;;;6.90;99.90;;;;;;5033555;28;20069;-77
2023/12/30 00:43:48;;;;;;;10.03;1.83;;;6.80;99.90;;;;;;5035298;28;20050;-78
2023/12/30 00:46:14;;;;;;;6.57;2.00;;;6.80;99.90;;;;;;5015483;28;20115;-77
2023/12/30 00:48:39;;;;;;;9.07;2.17;;;6.80;99.90;;;;;;5032530;28;20056;-78
2023/12/30 00:51:05;;;;;;;5.03;1.90;;;6.80;99.90;;;;;;5035684;28;20401;-78
2023/12/30 00:53:31;;;;;;;8.00;2.07;;;6.70;99.90;;;;;;5030878;28;20154;-77
2023/12/30 00:55:57;;;;;;;10.30;1.97;;;6.70;99.90;;;;;;5036449;28;20056;-77
2023/12/30 00:58:24;;;;;;;7.70;1.90;;;6.70;99.90;;;;;;5035115;28;20071;-77
2023/12/30 01:00:51;;;;;;;6.50;1.87;;;6.70;99.90;;;;;;5038792;28;20047;-77
2023/12/30 01:03:17;;;;;;;6.17;1.67;;;6.70;99.90;;;;;;5035092;28;20084;-77
2023/12/30 01:05:44;;;;;;;4.07;1.83;;;6.60;99.90;;;;;;5035493;28;20040;-77
2023/12/30 01:08:10;;;;;;;6.80;1.87;;;6.60;99.90;;;;;;5031502;28;20038;-77
2023/12/30 01:10:35;;;;;;;9.37;2.30;;;6.60;99.90;;;;;;5031775;28;20056;-78
2023/12/30 01:13:01;;;;;;;7.57;1.63;;;6.60;99.90;;;;;;5035153;28;20041;-73
2023/12/30 01:15:27;;;;;;;8.83;2.60;;;6.60;99.90;;;;;;5031076;28;20053;-78
2023/12/30 01:17:53;;;;;;;9.10;1.90;;;6.60;99.90;;;;;;5031069;28;20144;-78
2023/12/30 01:20:19;;;;;;;6.50;1.90;;;6.60;99.90;;;;;;5020673;28;20045;-78
2023/12/30 01:22:44;;;;;;;5.30;1.67;;;6.60;99.90;;;;;;5034340;28;20151;-78
2023/12/30 01:25:10;;;;;;;9.87;2.10;;;6.60;99.90;;;;;;5021714;28;20539;-78
2023/12/30 01:27:36;;;;;;;6.43;1.93;;;6.60;99.90;;;;;;5034057;28;20037;-78
2023/12/30 01:30:02;;;;;;;6.43;1.77;;;6.60;99.90;;;;;;5036612;28;20135;-78
2023/12/30 01:32:27;;;;;;;7.00;2.00;;;6.60;99.90;;;;;;5014772;28;20061;-78
2023/12/30 01:34:53;;;;;;;6.07;2.17;;;6.60;99.90;;;;;;5031435;28;20061;-78
2023/12/30 01:37:19;;;;;;;6.20;1.80;;;6.60;99.90;;;;;;5029051;28;20055;-77
2023/12/30 01:39:45;;;;;;;6.10;2.73;;;6.50;99.90;;;;;;5015986;28;20049;-78
2023/12/30 01:42:11;;;;;;;9.43;2.00;;;6.50;99.90;;;;;;5038420;28;20071;-78
2023/12/30 01:44:37;;;;;;;7.20;1.93;;;6.50;99.90;;;;;;5035894;28;20052;-78
2023/12/30 01:47:03;;;;;;;7.33;2.50;;;6.50;99.90;;;;;;5032942;28;20041;-78
2023/12/30 01:49:29;;;;;;;6.10;1.80;;;6.50;99.90;;;;;;5015265;28;20048;-78
2023/12/30 01:51:55;;;;;;;7.23;1.90;;;6.50;99.90;;;;;;5031348;28;20044;-78
2023/12/30 01:54:22;;;;;;;8.13;2.30;;;6.50;99.90;;;;;;5015214;28;20041;-78
2023/12/30 01:56:51;;;;;;;7.07;1.80;;;6.50;99.90;;;;;;5033870;28;20068;-78
2023/12/30 01:59:18;;;;;;;8.87;1.70;;;6.50;99.90;;;;;;5034117;28;20044;-78
2023/12/30 02:01:45;;;;;;;7.73;1.80;;;6.40;99.90;;;;;;5014410;28;20076;-79
2023/12/30 02:04:11;;;;;;;8.70;2.37;;;6.40;99.90;;;;;;5017700;28;20053;-79
2023/12/30 02:06:39;;;;;;;5.63;2.10;;;6.40;99.90;;;;;;5016753;28;20045;-78
2023/12/30 02:09:05;;;;;;;5.23;1.80;;;6.40;99.90;;;;;;5016586;28;20072;-79
2023/12/30 02:11:31;;;;;;;8.13;2.33;;;6.30;99.90;;;;;;5035024;28;20045;-79
2023/12/30 02:13:57;;;;;;;7.70;1.93;;;6.40;99.90;;;;;;5008376;28;20128;-79
2023/12/30 02:16:23;;;;;;;7.23;1.97;;;6.40;99.90;;;;;;5016380;28;20099;-79
2023/12/30 02:18:49;;;;;;;10.07;1.97;;;6.40;99.90;;;;;;5034553;28;20113;-79
2023/12/30 02:21:14;;;;;;;8.27;2.23;;;6.40;99.90;;;;;;5036138;28;20068;-79
2023/12/30 02:23:40;;;;;;;6.27;2.17;;;6.50;99.90;;;;;;5029096;28;20088;-78
2023/12/30 02:26:07;;;;;;;7.50;2.20;;;6.50;99.90;;;;;;5029960;28;20042;-79
2023/12/30 02:28:33;;;;;;;9.43;2.03;;;6.50;99.90;;;;;;5030483;28;20045;-79
2023/12/30 02:30:59;;;;;;;6.13;1.90;;;6.50;99.90;;;;;;5032667;28;20041;-79
2023/12/30 02:33:25;;;;;;;9.53;1.83;;;6.50;99.90;;;;;;5035321;28;20049;-80
2023/12/30 02:35:51;;;;;;;7.77;1.87;;;6.50;99.90;;;;;;5012618;28;20069;-80
2023/12/30 02:38:17;;;;;;;8.73;1.87;;;6.60;99.90;;;;;;5033064;28;20052;-79
2023/12/30 02:40:44;;;;;;;8.53;2.03;;;6.60;99.90;;;;;;5034626;28;20037;-79
2023/12/30 02:43:10;;;;;;;5.93;1.90;;;6.60;99.90;;;;;;5035673;28;20045;-78
2023/12/30 02:45:35;;;;;;;7.07;2.20;;;6.50;99.90;;;;;;5035591;28;20096;-78
2023/12/30 02:48:02;;;;;;;8.20;2.10;;;6.50;99.90;;;;;;5035045;28;20069;-78
2023/12/30 02:50:27;;;;;;;10.10;2.30;;;6.50;99.90;;;;;;5030842;28;20452;-77
2023/12/30 02:52:53;;;;;;;6.70;1.77;;;6.50;99.90;;;;;;5029393;28;20049;-77
2023/12/30 02:55:19;;;;;;;6.13;2.10;;;6.50;99.90;;;;;;5031532;28;20070;-78
2023/12/30 02:57:44;;;;;;;6.63;1.87;;;6.50;99.90;;;;;;5030598;28;20132;-78
2023/12/30 03:00:10;;;;;;;10.07;2.33;;;6.50;99.90;;;;;;4999206;28;20045;-79
2023/12/30 03:02:37;;;;;;;9.20;2.30;;;6.50;99.90;;;;;;5016517;28;20047;-78
2023/12/30 03:05:03;;;;;;;6.23;2.00;;;6.50;99.90;;;;;;5019062;28;20041;-78
2023/12/30 03:07:29;;;;;;;9.37;1.90;;;6.50;99.90;;;;;;5037633;28;20041;-79
2023/12/30 03:09:54;;;;;;;6.67;1.83;;;6.50;99.90;;;;;;5030919;28;20038;-79
2023/12/30 03:12:20;;;;;;;9.20;1.90;;;6.50;99.90;;;;;;5037999;28;20033;-80
2023/12/30 03:14:46;;;;;;;7.77;2.00;;;6.60;99.90;;;;;;5004721;28;20038;-75
2023/12/30 03:17:11;;;;;;;10.73;2.03;;;6.60;99.90;;;;;;5015455;28;20061;-77
2023/12/30 03:19:37;;;;;;;9.33;2.00;;;6.70;99.90;;;;;;5038048;28;20440;-79
2023/12/30 03:22:03;;;;;;;14.07;2.30;;;6.70;99.90;;;;;;5038007;28;20045;-79
2023/12/30 03:24:28;;;;;;;8.87;1.90;;;6.70;99.90;;;;;;5037489;28;20052;-78
2023/12/30 03:26:54;;;;;;;6.30;1.90;;;6.70;99.90;;;;;;5033469;28;20076;-78
2023/12/30 03:29:20;;;;;;;6.83;1.80;;;6.70;99.90;;;;;;4995582;28;20049;-78
2023/12/30 03:31:46;;;;;;;6.90;1.90;;;6.60;99.90;;;;;;5036956;28;20038;-78
2023/12/30 03:34:12;;;;;;;6.47;1.53;;;6.60;99.90;;;;;;5041013;28;20080;-78
2023/12/30 03:36:37;;;;;;;6.17;2.00;;;6.60;99.90;;;;;;5033582;28;20045;-78
2023/12/30 03:39:04;;;;;;;8.63;2.30;;;6.60;99.90;;;;;;5039253;28;20540;-78
2023/12/30 03:41:29;;;;;;;9.27;2.83;;;6.60;99.90;;;;;;5035169;28;20241;-78
2023/12/30 03:43:55;;;;;;;7.03;2.10;;;6.60;99.90;;;;;;5038394;28;20493;-78
2023/12/30 03:46:21;;;;;;;10.40;2.43;;;6.60;99.90;;;;;;5039557;28;20045;-78
2023/12/30 03:48:46;;;;;;;6.47;1.90;;;6.60;99.90;;;;;;5037788;28;20450;-78
2023/12/30 03:51:12;;;;;;;6.73;2.03;;;6.60;99.90;;;;;;5036804;28;20069;-78
2023/12/30 03:53:38;;;;;;;8.47;2.00;;;6.60;99.90;;;;;;5018055;28;20026;-78
2023/12/30 03:56:04;;;;;;;7.50;2.13;;;6.50;99.90;;;;;;5034664;28;20147;-79
2023/12/30 03:58:30;;;;;;;7.80;2.17;;;6.60;99.90;;;;;;5035828;28;20041;-79
2023/12/30 04:00:55;;;;;;;11.23;2.10;;;6.60;99.90;;;;;;5019660;28;20302;-78
2023/12/30 04:03:21;;;;;;;9.57;2.30;;;6.50;99.90;;;;;;5021492;28;20044;-78
2023/12/30 04:05:47;;;;;;;10.47;2.83;;;6.50;99.90;;;;;;5032399;28;20080;-79
2023/12/30 04:08:12;;;;;;;9.90;2.23;;;6.60;99.90;;;;;;5018786;28;20526;-78
2023/12/30 04:10:38;;;;;;;10.00;2.13;;;6.50;99.90;;;;;;5032533;28;20045;-79
2023/12/30 04:13:04;;;;;;;7.50;2.30;;;6.50;99.90;;;;;;5021294;28;20071;-78
2023/12/30 04:15:29;;;;;;;9.33;1.90;;;6.50;99.90;;;;;;5018906;28;20058;-78
2023/12/30 04:17:55;;;;;;;7.20;1.80;;;6.50;99.90;;;;;;5037491;28;20122;-78
2023/12/30 04:20:21;;;;;;;7.73;2.23;;;6.40;99.90;;;;;;5035371;28;20049;-78
2023/12/30 04:22:46;;;;;;;10.73;1.80;;;6.40;99.90;;;;;;5036403;28;20409;-78
2023/12/30 04:25:12;;;;;;;8.90;2.10;;;6.40;99.90;;;;;;5037843;28;20037;-78
2023/12/30 04:27:38;;;;;;;8.73;2.33;;;6.40;99.90;;;;;;5015830;28;20033;-79
2023/12/30 04:30:04;;;;;;;10.13;2.57;;;6.50;99.90;;;;;;5032429;28;20033;-78
2023/12/30 04:32:30;;;;;;;8.17;2.30;;;6.40;99.90;;;;;;5029252;28;20665;-78
2023/12/30 04:34:55;;;;;;;9.80;2.60;;;6.40;99.90;;;;;;5034333;28;20112;-78
2023/12/30 04:37:21;;;;;;;8.83;2.27;;;6.40;99.90;;;;;;5032865;28;20484;-78
2023/12/30 04:39:47;;;;;;;11.63;2.50;;;6.40;99.90;;;;;;5037489;28;20140;-77
2023/12/30 04:42:14;;;;;;;10.67;2.47;;;6.30;99.90;;;;;;5035432;28;20063;-79
2023/12/30 04:44:40;;;;;;;11.40;2.07;;;6.30;99.90;;;;;;5032116;28;20603;-74
2023/12/30 04:47:06;;;;;;;9.87;2.77;;;6.30;99.90;;;;;;5022482;28;20051;-85
2023/12/30 04:49:32;;;;;;;10.83;2.10;;;6.30;99.90;;;;;;5035047;28;20045;-75
2023/12/30 04:51:58;;;;;;;14.50;2.37;;;6.30;99.90;;;;;;5035102;28;20037;-79
2023/12/30 04:54:25;;;;;;;11.17;2.50;;;6.30;99.90;;;;;;5035105;28;20033;-80
2023/12/30 04:56:51;;;;;;;9.63;2.10;;;6.30;99.90;;;;;;5038170;28;20083;-80
2023/12/30 04:59:18;;;;;;;11.70;2.83;;;6.30;99.90;;;;;;5037037;28;20056;-80
2023/12/30 05:01:43;;;;;;;6.17;2.40;;;6.30;99.90;;;;;;5031323;28;20373;-79
2023/12/30 05:04:09;;;;;;;6.43;2.00;;;6.30;99.90;;;;;;5015159;28;20052;-80
2023/12/30 05:06:35;;;;;;;10.83;2.53;;;6.30;99.90;;;;;;5019834;28;20045;-80
2023/12/30 05:09:01;;;;;;;9.87;2.30;;;6.30;99.90;;;;;;5036890;28;20739;-78
2023/12/30 05:11:27;;;;;;;11.13;3.00;;;6.20;99.90;;;;;;5023054;28;20049;-78
2023/12/30 05:13:52;;;;;;;8.63;2.00;;;6.30;99.90;;;;;;5041892;28;20109;-77
2023/12/30 05:16:18;;;;;;;8.83;2.30;;;6.30;99.90;;;;;;5042710;28;20075;-77
2023/12/30 05:18:44;;;;;;;13.77;2.30;;;6.20;99.90;;;;;;5007247;28;20049;-77
2023/12/30 05:21:16;;;;;;;10.33;2.43;;;6.20;99.90;;;;;;5039155;28;20046;-77
2023/12/30 05:23:42;;;;;;;11.33;2.80;;;6.20;99.90;;;;;;5048071;28;20053;-77
2023/12/30 05:26:09;;;;;;;11.27;2.63;;;6.20;99.90;;;;;;5012876;28;20078;-77
2023/12/30 05:28:35;;;;;;;13.67;2.40;;;6.20;99.90;;;;;;5035906;28;20052;-77
2023/12/30 05:31:01;;;;;;;9.03;2.70;;;6.20;99.90;;;;;;5044011;28;20045;-77
2023/12/30 05:33:27;;;;;;;10.10;2.33;;;6.10;99.90;;;;;;5048835;28;20055;-76
2023/12/30 05:35:53;;;;;;;10.93;2.83;;;6.20;99.90;;;;;;5047091;28;20440;-76
2023/12/30 05:38:19;;;;;;;10.87;2.10;;;6.10;99.90;;;;;;5045414;28;20109;-76
2023/12/30 05:40:45;;;;;;;8.57;2.40;;;6.10;99.90;;;;;;5045097;28;20483;-76
2023/12/30 05:43:10;;;;;;;11.87;2.30;;;6.10;99.90;;;;;;5027597;28;20041;-76
2023/12/30 05:45:36;;;;;;;9.93;2.10;;;6.10;99.90;;;;;;5044456;28;20053;-76
2023/12/30 05:48:02;;;;;;;10.70;2.80;;;6.10;99.90;;;;;;5025949;28;20045;-77
2023/12/30 05:50:28;;;;;;;11.93;2.20;;;6.10;99.90;;;;;;5048632;28;20172;-77
2023/12/30 05:52:55;;;;;;;11.63;2.60;;;6.10;99.90;;;;;;5047501;28;20572;-78
2023/12/30 05:55:21;;;;;;;10.97;2.70;;;6.00;99.90;;;;;;5027744;28;20435;-77
2023/12/30 05:57:47;;;;;;;11.07;2.60;;;6.00;99.90;;;;;;5037224;28;20074;-76
2023/12/30 06:00:14;;;;;;;10.83;2.47;;;6.00;99.90;;;;;;5039375;28;20047;-77
2023/12/30 06:02:40;;;;;;;8.47;2.33;;;6.00;99.90;;;;;;5025244;28;20580;-76
2023/12/30 06:05:06;;;;;;;10.83;2.70;;;6.00;99.90;;;;;;5011089;28;20460;-76
2023/12/30 06:07:32;;;;;;;7.30;2.20;;;6.00;99.90;;;;;;5041068;28;20103;-77
2023/12/30 06:09:57;;;;;;;9.17;2.53;;;6.00;99.90;;;;;;5018450;28;20132;-76
2023/12/30 06:12:23;;;;;;;11.20;2.80;;;6.00;99.90;;;;;;5039235;28;20094;-77
2023/12/30 06:14:49;;;;;;;15.13;2.70;;;6.00;99.90;;;;;;5023919;28;20068;-77
2023/12/30 06:17:15;;;;;;;12.13;2.50;;;6.00;99.90;;;;;;5046327;28;20084;-75
2023/12/30 06:19:40;;;;;;;13.07;3.00;;;6.00;99.90;;;;;;5040114;28;20057;-76
2023/12/30 06:22:06;;;;;;;9.97;2.70;;;6.00;99.90;;;;;;5032191;28;20523;-76
2023/12/30 06:24:33;;;;;;;11.37;2.50;;;5.90;99.90;;;;;;5041108;28;20045;-75
2023/12/30 06:26:59;;;;;;;15.83;2.83;;;5.90;99.90;;;;;;5030826;28;20074;-76
2023/12/30 06:29:28;;;;;;;15.17;3.10;;;6.00;99.90;;;;;;5033368;28;20095;-76
2023/12/30 06:31:54;;;;;;;12.30;2.50;;;5.90;99.90;;;;;;5026806;28;20048;-75
2023/12/30 06:34:20;;;;;;;11.83;3.07;;;5.90;99.90;;;;;;5025686;28;20062;-75
2023/12/30 06:36:46;;;;;;;12.60;2.37;;;5.90;99.90;;;;;;5040322;28;20084;-76
2023/12/30 06:39:17;;;;;;;14.73;2.77;;;5.90;99.90;;;;;;5042632;28;20100;-74
2023/12/30 06:41:43;;;;;;;10.30;2.43;;;5.90;99.90;;;;;;5012024;28;20077;-74
2023/12/30 06:44:09;;;;;;;12.70;2.73;;;5.80;99.90;;;;;;5029442;28;20117;-75
2023/12/30 06:46:35;;;;;;;12.27;2.17;;;5.90;99.90;;;;;;5029371;28;20087;-75
2023/12/30 06:49:00;;;;;;;9.97;2.30;;;5.80;99.90;;;;;;5040287;28;20049;-73
2023/12/30 06:51:27;;;;;;;8.57;2.17;;;5.80;99.90;;;;;;5041668;28;20246;-74
2023/12/30 06:53:53;;;;;;;11.77;2.47;;;5.70;99.90;;;;;;5046317;28;20053;-74
2023/12/30 06:56:19;;;;;;;14.13;2.90;;;5.70;99.90;;;;;;5053891;28;20049;-75
2023/12/30 06:58:45;;;;;;;7.80;2.27;;;5.70;99.90;;;;;;5041954;28;20056;-75
2023/12/30 07:01:14;;;;;;;10.33;2.37;;;5.70;99.90;;;;;;5039316;28;20122;-75
2023/12/30 07:03:40;;;;;;;10.10;2.57;;;5.70;99.90;;;;;;5033693;28;20401;-75
2023/12/30 07:06:06;;;;;;;13.40;2.90;;;5.70;99.90;;;;;;5029941;28;20055;-76
2023/12/30 07:08:32;;;;;;;9.67;2.63;;;5.60;99.90;;;;;;5035818;28;20056;-75
2023/12/30 07:10:58;;;;;;;9.97;2.77;;;5.50;99.90;;;;;;5043270;28;20057;-75
2023/12/30 07:13:24;;;;;;;11.93;2.50;;;5.50;99.90;;;;;;5050193;28;20042;-75
2023/12/30 07:15:52;;;;;;;11.53;2.43;;;5.60;99.90;;;;;;5050939;28;20567;-75
2023/12/30 07:18:18;;;;;;;12.10;2.87;;;5.50;99.90;;;;;;5027167;28;20053;-75
2023/12/30 07:20:44;;;;;;;14.53;2.60;;;5.50;99.90;;;;;;5024837;28;20106;-75
2023/12/30 07:23:10;;;;;;;9.43;2.90;;;5.60;99.90;;;;;;5047718;28;20323;-74
2023/12/30 07:25:36;;;;;;;9.50;2.77;;;5.50;99.90;;;;;;5023526;28;20071;-75
2023/12/30 07:28:02;;;;;;;12.37;2.77;;;5.50;99.90;;;;;;5026304;28;20053;-75
2023/12/30 07:30:28;;;;;;;10.90;2.57;;;5.50;99.90;;;;;;5042511;28;20058;-75
2023/12/30 07:32:53;;;;;;;10.23;2.43;;;5.40;99.90;;;;;;5033446;28;20117;-76
2023/12/30 07:35:19;;;;;;;9.27;2.70;;;5.40;99.90;;;;;;5032101;28;20151;-76
2023/12/30 07:37:47;;;;;;;12.00;2.33;;;5.40;99.90;;;;;;5020411;28;20568;-75
2023/12/30 07:40:13;;;;;;;11.43;2.50;;;5.40;99.90;;;;;;5018489;28;20054;-75
2023/12/30 07:42:39;;;;;;;9.30;2.93;;;5.40;99.90;;;;;;5028071;28;20283;-75
2023/12/30 07:45:08;;;;;;;9.80;2.40;;;5.40;99.90;;;;;;5035446;28;19988;-75
2023/12/30 07:47:34;;;;;;;9.97;2.23;;;5.40;99.90;;;;;;5025547;28;20202;-75
2023/12/30 07:49:59;;;;;;;12.63;2.90;;;5.30;99.90;;;;;;5034683;28;20092;-75
2023/12/30 07:52:26;;;;;;;8.87;2.50;;;5.40;99.90;;;;;;5016138;28;20375;-71
2023/12/30 07:54:52;;;;;;;10.73;2.90;;;5.30;99.90;;;;;;5027746;28;20057;-71
2023/12/30 07:57:18;;;;;;;12.70;2.83;;;5.30;99.90;;;;;;5035306;28;20138;-76
2023/12/30 07:59:44;;;;;;;11.20;2.30;;;5.30;99.90;;;;;;5015152;28;20053;-79
2023/12/30 08:02:09;;;;;;;10.10;2.27;;;5.20;99.90;;;;;;5045443;28;20053;-81
2023/12/30 08:04:35;;;;;;;12.77;2.50;;;5.20;99.90;;;;;;5043165;28;20264;-75
2023/12/30 08:07:01;;;;;;;10.97;2.67;;;5.30;99.90;;;;;;5021898;28;20050;-76
2023/12/30 08:09:26;;;;;;;9.77;2.33;;;5.30;99.90;;;;;;5045430;28;20047;-77
2023/12/30 08:11:52;;;;;;;12.17;2.90;;;5.20;99.90;;;;;;5027661;28;20405;-76
2023/12/30 08:14:18;;;;;;;9.70;2.40;;;5.30;99.90;;;;;;5020554;28;20069;-76
2023/12/30 08:16:44;;;;;;;11.13;2.33;;;5.30;99.90;;;;;;5020061;28;20057;-76
2023/12/30 08:19:09;;;;;;;11.23;3.10;;;5.20;99.90;;;;;;5008807;28;20052;-76
2023/12/30 08:21:36;;;;;;;9.97;2.73;;;5.20;99.90;;;;;;5007611;28;20127;-76
2023/12/30 08:24:03;;;;;;;8.30;2.33;;;5.30;99.90;;;;;;5025308;28;20061;-75
2023/12/30 08:26:29;;;;;;;11.60;2.40;;;5.30;99.90;;;;;;5037186;28;20100;-76
2023/12/30 08:28:55;;;;;;;9.37;2.60;;;5.30;99.90;;;;;;5021002;28;20042;-75
2023/12/30 08:31:21;;;;;;;8.60;2.87;;;5.30;99.90;;;;;;5020280;28;20503;-74
2023/12/30 08:33:48;;;;;;;6.57;2.20;;;5.30;99.90;;;;;;5042225;28;20041;-74
2023/12/30 08:36:13;;;;;;;9.00;2.63;;;5.40;99.90;;;;;;5036309;28;20040;-75
2023/12/30 08:38:40;;;;;;;12.43;2.97;;;5.40;99.90;;;;;;5045573;28;20045;-75
2023/12/30 08:41:09;;;;;;;7.17;2.10;;;5.50;99.90;;;;;;5037210;28;20272;-74
2023/12/30 08:43:36;;;;;;;9.00;2.80;;;5.50;99.90;;;;;;5040400;28;20099;-75
2023/12/30 08:46:01;;;;;;;9.47;2.30;;;5.60;99.90;;;;;;5036250;28;20136;-75
2023/12/30 08:48:27;;;;;;;10.23;2.30;;;5.70;99.90;;;;;;5020150;28;20552;-74
2023/12/30 08:50:53;;;;;;;10.33;2.53;;;5.70;99.90;;;;;;5048872;28;20049;-74
2023/12/30 08:53:24;;;;;;;9.43;2.20;;;5.80;99.90;;;;;;5043157;28;20044;-75
2023/12/30 08:55:51;;;;;;;6.80;2.77;;;5.80;99.90;;;;;;5041612;28;20052;-74
2023/12/30 08:58:17;;;;;;;8.20;2.50;;;5.90;99.90;;;;;;5023031;28;20107;-75
2023/12/30 09:00:43;;;;;;;10.43;2.47;;;5.90;99.90;;;;;;5044657;28;20489;-74
2023/12/30 09:03:08;;;;;;;11.87;2.50;;;5.90;99.90;;;;;;5002535;28;20073;-76
2023/12/30 09:05:34;;;;;;;7.67;2.40;;;6.00;99.90;;;;;;5034618;28;20137;-74
2023/12/30 09:08:03;;;;;;;7.97;2.57;;;6.00;99.90;;;;;;5039210;28;20034;-75
2023/12/30 09:10:30;;;;;;;9.63;2.50;;;6.10;99.90;;;;;;5033500;28;20369;-75
2023/12/30 09:12:56;;;;;;;11.40;2.60;;;6.10;99.90;;;;;;5022107;28;20093;-75
2023/12/30 09:15:22;;;;;;;11.20;2.70;;;6.10;99.90;;;;;;5042839;28;20083;-75
2023/12/30 09:17:47;;;;;;;9.40;2.73;;;6.20;99.90;;;;;;5043964;28;20049;-75
2023/12/30 09:20:13;;;;;;;8.77;2.40;;;6.20;99.90;;;;;;5039269;28;20080;-75
2023/12/30 09:22:39;;;;;;;10.27;2.70;;;6.30;99.90;;;;;;5040607;28;20252;-75
2023/12/30 09:25:05;;;;;;;9.40;2.53;;;6.30;99.90;;;;;;5015492;28;20154;-75
2023/12/30 09:27:32;;;;;;;10.47;2.77;;;6.30;99.90;;;;;;5042792;28;20053;-75
2023/12/30 09:29:57;;;;;;;6.97;2.30;;;6.40;99.90;;;;;;5048715;28;20057;-72
2023/12/30 09:32:23;;;;;;;8.13;2.70;;;6.40;99.90;;;;;;5023102;28;20038;-76
2023/12/30 09:34:49;;;;;;;15.63;3.57;;;6.40;99.90;;;;;;5036518;28;20311;-75
2023/12/30 09:37:14;;;;;;;11.40;2.67;;;6.40;99.90;;;;;;5017398;28;20052;-77
2023/12/30 09:39:42;;;;;;;13.47;2.77;;;6.40;99.90;;;;;;5039029;28;20598;-75
2023/12/30 09:42:07;;;;;;;8.83;2.73;;;6.40;99.90;;;;;;5049502;28;20040;-76
2023/12/30 09:44:34;;;;;;;12.80;2.80;;;6.40;99.90;;;;;;5039749;28;20045;-76
2023/12/30 09:47:01;;;;;;;15.23;2.70;;;6.40;99.90;;;;;;5036617;28;20068;-76
2023/12/30 09:49:34;;;;;;;13.13;2.50;;;6.50;99.90;;;;;;5038474;28;20072;-76
2023/12/30 09:52:02;;;;;;;14.37;2.87;;;6.50;99.90;;;;;;5038297;28;20055;-76
2023/12/30 09:54:28;;;;;;;8.90;2.40;;;6.60;99.90;;;;;;5037535;28;20052;-76
2023/12/30 09:56:55;;;;;;;12.40;2.90;;;6.60;99.90;;;;;;5048048;28;20038;-76
2023/12/30 09:59:22;;;;;;;7.03;2.70;;;6.60;99.90;;;;;;5015865;28;20036;-76
2023/12/30 10:01:48;;;;;;;11.77;3.07;;;6.60;99.90;;;;;;5040186;28;20444;-76
2023/12/30 10:04:14;;;;;;;7.43;2.57;;;6.70;99.90;;;;;;5015798;28;20289;-76
2023/12/30 10:06:42;;;;;;;11.20;2.40;;;6.70;99.90;;;;;;5042911;28;20512;-76
2023/12/30 10:09:09;;;;;;;11.83;2.67;;;6.70;99.90;;;;;;5036050;28;20041;-76
2023/12/30 10:11:36;;;;;;;10.37;2.50;;;6.80;99.90;;;;;;5034277;28;20115;-76
2023/12/30 10:14:02;;;;;;;8.50;2.63;;;6.80;99.90;;;;;;5047727;28;20037;-76
2023/12/30 10:16:29;;;;;;;9.00;2.20;;;6.80;99.90;;;;;;5044353;28;20108;-76
2023/12/30 10:18:56;;;;;;;7.90;2.30;;;6.90;99.90;;;;;;5037586;28;20044;-76
2023/12/30 10:21:22;;;;;;;10.10;2.70;;;6.90;99.90;;;;;;5043860;28;20036;-76
2023/12/30 10:23:51;;;;;;;7.60;2.43;;;6.90;99.90;;;;;;5039775;28;20630;-76
2023/12/30 10:26:18;;;;;;;8.33;2.93;;;7.00;99.90;;;;;;5024728;28;20555;-76
2023/12/30 10:28:44;;;;;;;9.37;2.20;;;7.10;99.90;;;;;;5046927;28;20037;-76
2023/12/30 10:31:11;;;;;;;12.33;2.50;;;7.00;99.90;;;;;;5021627;28;20036;-76
2023/12/30 10:33:37;;;;;;;8.20;2.83;;;7.10;99.90;;;;;;5040185;28;20061;-75
2023/12/30 10:36:09;;;;;;;6.03;2.00;;;7.10;99.90;;;;;;5037781;28;20049;-76
2023/12/30 10:38:40;;;;;;;10.02;2.78;;;7.00;99.90;;;;;;5041823;28;20045;-76
2023/12/30 10:41:05;;;;;;;9.20;2.70;;;7.00;99.90;;;;;;5035324;28;20053;-76
2023/12/30 10:43:31;;;;;;;8.27;2.87;;;7.00;99.90;;;;;;5012327;28;20060;-76
2023/12/30 10:45:59;;;;;;;12.73;2.97;;;7.00;99.90;;;;;;5020554;28;20045;-76
2023/12/30 10:48:33;;;;;;;9.70;3.20;;;7.00;99.90;;;;;;5047095;28;20064;-76
2023/12/30 10:51:02;;;;;;;10.43;3.03;;;7.10;99.90;;;;;;5043805;28;20050;-76
2023/12/30 10:53:44;;;;;;;8.90;3.00;;;7.00;99.90;;;;;;5023762;28;20042;-76
2023/12/30 10:56:15;;;;;;;10.43;3.53;;;7.00;99.90;;;;;;4997412;28;20049;-76
2023/12/30 10:58:41;;;;;;;11.73;3.60;;;7.00;99.90;;;;;;5026607;28;20452;-76
2023/12/30 11:01:06;;;;;;;11.70;3.57;;;7.00;99.90;;;;;;5042725;28;20037;-76
2023/12/30 11:03:33;;;;;;;12.53;3.77;;;7.10;99.90;;;;;;5015944;28;20037;-76
2023/12/30 11:06:11;;;;;;;12.93;4.23;;;7.10;99.90;;;;;;5037811;28;20111;-76
2023/12/30 11:08:38;;;;;;;11.53;4.33;;;7.10;99.90;;;;;;5042780;28;20052;-76
2023/12/30 11:11:04;;;;;;;14.53;4.83;;;7.10;99.90;;;;;;5015162;28;20050;-76
2023/12/30 11:13:57;;;;;;;12.43;5.53;;;7.20;99.90;;;;;;5027431;28;20048;-76
2023/12/30 11:16:23;;;;;;;13.10;5.13;;;7.20;99.90;;;;;;5012792;28;20473;-76
2023/12/30 11:18:59;;;;;;;12.20;5.40;;;7.20;99.90;;;;;;5047007;28;20049;-76
2023/12/30 11:21:42;;;;;;;13.97;5.67;;;7.30;99.90;;;;;;5046878;28;20053;-75
2023/12/30 11:24:13;;;;;;;14.23;5.40;;;7.40;99.90;;;;;;5033016;28;20053;-76
2023/12/30 11:26:44;;;;;;;14.10;5.43;;;7.40;99.90;;;;;;5043600;28;20039;-76
2023/12/30 11:29:14;;;;;;;15.60;5.47;;;7.50;99.90;;;;;;5038074;28;20049;-76
2023/12/30 11:31:42;;;;;;;14.60;5.83;;;7.50;99.90;;;;;;5044588;28;20055;-76
2023/12/30 11:34:09;;;;;;;15.37;5.37;;;7.60;99.90;;;;;;5045299;28;20625;-76
2023/12/30 11:36:36;;;;;;;12.67;4.87;;;7.70;99.90;;;;;;5018536;28;20041;-76
2023/12/30 11:39:03;;;;;;;11.73;5.00;;;7.70;99.90;;;;;;5050773;28;20055;-76
2023/12/30 11:41:30;;;;;;;14.17;5.70;;;7.70;99.90;;;;;;5043035;28;20051;-76
2023/12/30 11:43:58;;;;;;;12.57;5.10;;;7.80;99.90;;;;;;5023193;28;20057;-75
2023/12/30 11:46:27;;;;;;;16.30;5.37;;;7.90;99.90;;;;;;5051979;28;20045;-76
2023/12/30 11:48:53;;;;;;;15.60;5.27;;;7.90;99.90;;;;;;5041666;28;20056;-75
2023/12/30 11:51:24;;;;;;;14.13;4.80;;;8.00;99.90;;;;;;5026521;28;20109;-75
2023/12/30 11:53:50;;;;;;;14.37;4.50;;;7.90;99.90;;;;;;5028774;28;20052;-76
2023/12/30 11:56:17;;;;;;;12.90;5.30;;;7.90;99.90;;;;;;5038859;28;20442;-76
2023/12/30 11:58:44;;;;;;;11.00;4.50;;;7.90;99.90;;;;;;5044890;28;20105;-76
2023/12/30 12:01:10;;;;;;;11.83;4.30;;;7.80;99.90;;;;;;5036765;28;20056;-76
2023/12/30 12:03:36;;;;;;;13.20;4.83;;;7.80;99.90;;;;;;5007237;28;20049;-76
2023/12/30 12:06:02;;;;;;;12.20;4.40;;;7.90;99.90;;;;;;5027612;28;20527;-76
2023/12/30 12:08:29;;;;;;;13.40;4.53;;;7.80;99.90;;;;;;5052053;28;20523;-76
2023/12/30 12:10:55;;;;;;;15.20;5.00;;;7.70;99.90;;;;;;5006750;28;20051;-76
2023/12/30 12:13:22;;;;;;;13.57;4.83;;;7.70;99.90;;;;;;5021333;28;20049;-76
2023/12/30 12:15:48;;;;;;;14.37;4.50;;;7.70;99.90;;;;;;5047218;28;20088;-76
2023/12/30 12:18:14;;;;;;;16.33;5.37;;;7.70;99.90;;;;;;5045469;28;20060;-76
2023/12/30 12:20:42;;;;;;;15.10;5.03;;;7.80;99.90;;;;;;5024969;28;20357;-77
2023/12/30 12:23:18;;;;;;;12.57;4.70;;;7.80;99.90;;;;;;5039756;28;20057;-77
2023/12/30 12:25:45;;;;;;;12.20;4.17;;;7.90;99.90;;;;;;5037051;28;20109;-76
2023/12/30 12:28:12;;;;;;;13.47;4.17;;;7.90;99.90;;;;;;5044734;28;20045;-76
2023/12/30 12:30:39;;;;;;;11.33;4.37;;;7.90;99.90;;;;;;5022177;28;20045;-75
2023/12/30 12:33:05;;;;;;;10.77;3.83;;;7.90;99.90;;;;;;5007507;28;20122;-76
2023/12/30 12:35:31;;;;;;;12.87;4.00;;;8.00;99.90;;;;;;5033279;28;20041;-75
2023/12/30 12:37:57;;;;;;;15.77;4.43;;;8.00;99.90;;;;;;5027988;28;20118;-76
2023/12/30 12:40:23;;;;;;;11.97;3.83;;;8.10;99.90;;;;;;5022543;28;20053;-77
2023/12/30 12:42:49;;;;;;;10.50;3.47;;;8.10;99.90;;;;;;5041325;28;20326;-77
2023/12/30 12:45:15;;;;;;;14.67;4.67;;;8.10;99.90;;;;;;5017668;28;20107;-77
2023/12/30 12:47:41;;;;;;;11.47;4.00;;;8.10;99.90;;;;;;5042886;28;20044;-77
2023/12/30 12:50:07;;;;;;;17.53;4.80;;;8.10;99.90;;;;;;5041438;28;20097;-77